createdAt,value
2023-08-02T00:00:36.214Z,17.35
2023-08-02T00:01:38.465Z,17.31
2023-08-02T00:02:41.061Z,17.41
2023-08-02T00:03:51.373Z,17.32
2023-08-02T00:05:00.247Z,17.27
2023-08-02T00:06:02.985Z,17.20
2023-08-02T00:07:06.140Z,17.25
2023-08-02T00:08:08.368Z,17.36
2023-08-02T00:09:10.868Z,17.34
2023-08-02T00:10:14.242Z,17.25
2023-08-02T00:11:19.707Z,17.26
2023-08-02T00:12:22.041Z,17.23
2023-08-02T00:13:24.436Z,17.34
2023-08-02T00:14:26.936Z,17.30
2023-08-02T00:15:29.153Z,17.31
2023-08-02T00:16:31.905Z,17.27
2023-08-02T00:17:34.474Z,17.25
2023-08-02T00:18:37.409Z,17.21
2023-08-02T00:19:39.819Z,17.20
2023-08-02T00:20:42.240Z,17.25
2023-08-02T00:21:45.203Z,17.26
2023-08-02T00:22:47.421Z,17.22
2023-08-02T00:23:49.664Z,17.22
2023-08-02T00:24:52.075Z,17.22
2023-08-02T00:25:54.640Z,17.15
2023-08-02T00:26:57.091Z,17.09
2023-08-02T00:27:59.657Z,17.06
2023-08-02T00:29:03.880Z,17.07
2023-08-02T00:30:06.730Z,17.11
2023-08-02T00:31:09.471Z,17.14
2023-08-02T00:32:11.949Z,17.22
2023-08-02T00:33:14.413Z,17.18
2023-08-02T00:34:17.919Z,17.19
2023-08-02T00:35:20.350Z,17.19
2023-08-02T00:36:22.727Z,17.22
2023-08-02T00:37:25.269Z,17.27
2023-08-02T00:38:27.634Z,17.17
2023-08-02T00:39:30.041Z,17.09
2023-08-02T00:40:32.445Z,17.14
2023-08-02T00:41:34.683Z,17.17
2023-08-02T00:42:37.155Z,17.18
2023-08-02T00:43:43.240Z,17.13
2023-08-02T00:44:46.154Z,17.19
2023-08-02T00:45:48.701Z,17.15
2023-08-02T00:46:51.318Z,17.16
2023-08-02T00:47:53.777Z,17.21
2023-08-02T00:48:56.214Z,17.21
2023-08-02T00:49:58.945Z,17.19
2023-08-02T00:51:02.888Z,17.12
2023-08-02T00:52:06.260Z,17.11
2023-08-02T00:53:08.590Z,17.06
2023-08-02T00:54:11.099Z,17.03
2023-08-02T00:55:13.368Z,17.07
2023-08-02T00:56:16.411Z,17.10
2023-08-02T00:57:18.848Z,17.09
2023-08-02T00:58:21.093Z,17.07
2023-08-02T00:59:23.284Z,17.04
2023-08-02T01:00:25.866Z,17.04
2023-08-02T01:01:28.179Z,17.02
2023-08-02T01:02:30.878Z,16.94
2023-08-02T01:03:33.467Z,16.91
2023-08-02T01:04:37.503Z,16.93
2023-08-02T01:05:44.977Z,16.93
2023-08-02T01:07:08.679Z,16.96
2023-08-02T01:08:20.717Z,17.00
2023-08-02T01:09:27.683Z,16.87
2023-08-02T01:10:53.467Z,16.99
2023-08-02T01:12:01.573Z,16.88
2023-08-02T01:13:05.441Z,16.84
2023-08-02T01:14:10.758Z,16.89
2023-08-02T01:15:15.692Z,16.96
2023-08-02T01:16:20.300Z,16.96
2023-08-02T01:17:26.678Z,16.95
2023-08-02T01:18:31.328Z,16.92
2023-08-02T01:19:34.340Z,16.92
2023-08-02T01:20:36.692Z,16.84
2023-08-02T01:21:40.148Z,16.82
2023-08-02T01:22:42.367Z,16.78
2023-08-02T01:23:45.371Z,16.80
2023-08-02T01:24:47.766Z,16.85
2023-08-02T01:25:52.405Z,16.83
2023-08-02T01:26:55.797Z,16.82
2023-08-02T01:28:06.037Z,16.88
2023-08-02T01:29:11.189Z,16.87
2023-08-02T01:30:17.646Z,16.86
2023-08-02T01:31:22.548Z,16.81
2023-08-02T01:32:25.157Z,16.96
2023-08-02T01:33:28.648Z,16.95
2023-08-02T01:34:31.795Z,16.96
2023-08-02T01:35:35.525Z,16.94
2023-08-02T01:36:39.110Z,16.95
2023-08-02T01:37:43.551Z,16.96
2023-08-02T01:38:46.168Z,17.04
2023-08-02T01:39:48.377Z,17.02
2023-08-02T01:40:51.134Z,17.01
2023-08-02T01:41:53.576Z,17.01
2023-08-02T01:42:55.818Z,17.02
2023-08-02T01:43:58.391Z,17.00
2023-08-02T01:45:00.649Z,17.03
2023-08-02T01:46:03.157Z,17.11
2023-08-02T01:47:05.440Z,17.10
2023-08-02T01:48:07.914Z,17.12
2023-08-02T01:49:10.337Z,17.16
2023-08-02T01:50:12.543Z,17.17
2023-08-02T01:51:15.233Z,17.06
2023-08-02T01:52:17.441Z,17.01
2023-08-02T01:53:19.863Z,17.01
2023-08-02T01:54:22.290Z,17.01
2023-08-02T01:55:24.505Z,17.05
2023-08-02T01:56:26.998Z,17.07
2023-08-02T01:57:29.205Z,16.99
2023-08-02T01:58:31.992Z,17.02
2023-08-02T01:59:34.236Z,17.10
2023-08-02T02:00:36.889Z,17.10
2023-08-02T02:01:39.963Z,17.12
2023-08-02T02:02:42.567Z,17.15
2023-08-02T02:03:45.143Z,17.20
2023-08-02T02:04:47.452Z,17.10
2023-08-02T02:05:56.012Z,17.12
2023-08-02T02:06:58.275Z,17.17
2023-08-02T02:08:00.696Z,17.21
2023-08-02T02:09:03.162Z,17.22
2023-08-02T02:10:05.786Z,17.25
2023-08-02T02:11:08.909Z,17.39
2023-08-02T02:12:11.190Z,17.27
2023-08-02T02:13:13.768Z,17.28
2023-08-02T02:14:16.267Z,17.24
2023-08-02T02:15:18.627Z,17.28
2023-08-02T02:16:20.887Z,17.27
2023-08-02T02:17:23.440Z,17.28
2023-08-02T02:18:25.890Z,17.38
2023-08-02T02:19:28.326Z,17.42
2023-08-02T02:20:30.601Z,17.28
2023-08-02T02:21:37.047Z,17.25
2023-08-02T02:22:39.755Z,17.24
2023-08-02T02:23:45.516Z,17.32
2023-08-02T02:24:47.807Z,17.29
2023-08-02T02:25:50.424Z,17.25
2023-08-02T02:26:55.899Z,17.25
2023-08-02T02:27:58.329Z,17.25
2023-08-02T02:29:02.771Z,17.29
2023-08-02T02:30:05.879Z,17.28
2023-08-02T02:31:08.404Z,17.26
2023-08-02T02:32:10.753Z,17.23
2023-08-02T02:33:13.223Z,17.24
2023-08-02T02:34:15.746Z,17.29
2023-08-02T02:35:17.975Z,17.36
2023-08-02T02:36:20.371Z,17.34
2023-08-02T02:37:22.706Z,17.29
2023-08-02T02:38:26.705Z,17.21
2023-08-02T02:39:29.141Z,17.29
2023-08-02T02:40:31.416Z,17.27
2023-08-02T02:41:33.652Z,17.30
2023-08-02T02:42:39.401Z,17.30
2023-08-02T02:43:42.024Z,17.26
2023-08-02T02:44:45.508Z,17.30
2023-08-02T02:45:47.786Z,17.26
2023-08-02T02:46:51.199Z,17.26
2023-08-02T02:47:53.854Z,17.25
2023-08-02T02:48:56.438Z,17.27
2023-08-02T02:49:58.639Z,17.20
2023-08-02T02:51:01.669Z,17.22
2023-08-02T02:52:04.458Z,17.18
2023-08-02T02:53:06.669Z,17.23
2023-08-02T02:54:09.263Z,17.22
2023-08-02T02:55:11.592Z,17.25
2023-08-02T02:56:14.156Z,17.24
2023-08-02T02:57:17.698Z,17.18
2023-08-02T02:58:19.937Z,17.11
2023-08-02T02:59:22.572Z,17.18
2023-08-02T03:00:24.787Z,17.22
2023-08-02T03:01:27.187Z,17.21
2023-08-02T03:02:30.108Z,17.27
2023-08-02T03:03:32.637Z,17.29
2023-08-02T03:04:36.422Z,17.39
2023-08-02T03:05:40.068Z,17.35
2023-08-02T03:06:42.558Z,17.32
2023-08-02T03:07:45.721Z,17.34
2023-08-02T03:08:47.944Z,17.35
2023-08-02T03:09:50.650Z,17.32
2023-08-02T03:10:52.949Z,17.22
2023-08-02T03:11:55.163Z,17.30
2023-08-02T03:12:57.567Z,17.24
2023-08-02T03:14:00.011Z,17.27
2023-08-02T03:15:02.451Z,17.26
2023-08-02T03:16:04.884Z,17.23
2023-08-02T03:17:07.205Z,17.20
2023-08-02T03:18:10.278Z,17.22
2023-08-02T03:19:13.623Z,17.18
2023-08-02T03:20:15.886Z,17.23
2023-08-02T03:21:18.430Z,17.26
2023-08-02T03:22:20.824Z,17.22
2023-08-02T03:23:23.086Z,17.25
2023-08-02T03:24:25.553Z,17.24
2023-08-02T03:25:27.783Z,17.20
2023-08-02T03:26:30.095Z,17.25
2023-08-02T03:27:32.540Z,17.25
2023-08-02T03:28:34.758Z,17.32
2023-08-02T03:29:37.765Z,17.37
2023-08-02T03:30:40.070Z,17.39
2023-08-02T03:31:43.680Z,17.38
2023-08-02T03:32:46.209Z,17.35
2023-08-02T03:33:48.607Z,17.35
2023-08-02T03:34:51.127Z,17.46
2023-08-02T03:35:53.368Z,17.46
2023-08-02T03:36:55.668Z,17.52
2023-08-02T03:37:58.094Z,17.51
2023-08-02T03:39:00.284Z,17.50
2023-08-02T03:40:02.872Z,17.55
2023-08-02T03:41:05.200Z,17.59
2023-08-02T03:42:08.075Z,17.66
2023-08-02T03:43:10.827Z,17.54
2023-08-02T03:44:13.251Z,17.51
2023-08-02T03:45:15.478Z,17.52
2023-08-02T03:46:17.707Z,17.53
2023-08-02T03:47:19.975Z,17.54
2023-08-02T03:48:22.417Z,17.56
2023-08-02T03:49:24.905Z,17.60
2023-08-02T03:50:28.251Z,17.63
2023-08-02T03:51:30.526Z,17.68
2023-08-02T03:52:32.739Z,17.62
2023-08-02T03:53:35.212Z,17.67
2023-08-02T03:54:37.696Z,17.61
2023-08-02T03:55:39.923Z,17.62
2023-08-02T03:56:42.571Z,17.69
2023-08-02T03:57:44.982Z,17.67
2023-08-02T03:58:47.457Z,17.64
2023-08-02T03:59:49.938Z,17.65
2023-08-02T04:00:52.697Z,17.66
2023-08-02T04:01:54.957Z,17.69
2023-08-02T04:02:57.325Z,17.72
2023-08-02T04:03:59.851Z,17.81
2023-08-02T04:05:02.618Z,17.87
2023-08-02T04:06:05.302Z,17.89
2023-08-02T04:07:07.577Z,17.84
2023-08-02T04:08:09.987Z,17.87
2023-08-02T04:09:12.219Z,17.90
2023-08-02T04:10:14.628Z,17.82
2023-08-02T04:11:16.898Z,17.86
2023-08-02T04:12:20.671Z,17.84
2023-08-02T04:13:23.084Z,17.87
2023-08-02T04:14:25.290Z,17.89
2023-08-02T04:15:27.706Z,17.89
2023-08-02T04:16:30.032Z,17.86
2023-08-02T04:17:32.505Z,17.95
2023-08-02T04:18:34.774Z,17.99
2023-08-02T04:19:37.085Z,18.08
2023-08-02T04:20:40.346Z,18.06
2023-08-02T04:21:42.546Z,18.05
2023-08-02T04:22:44.992Z,18.04
2023-08-02T04:23:50.338Z,18.05
2023-08-02T04:24:52.992Z,18.04
2023-08-02T04:25:56.842Z,18.05
2023-08-02T04:27:00.453Z,18.08
2023-08-02T04:28:02.845Z,18.11
2023-08-02T04:29:05.086Z,18.09
2023-08-02T04:30:08.199Z,18.14
2023-08-02T04:31:10.553Z,18.14
2023-08-02T04:32:12.988Z,18.22
2023-08-02T04:33:15.270Z,18.16
2023-08-02T04:34:17.510Z,18.17
2023-08-02T04:35:20.099Z,18.17
2023-08-02T04:36:22.658Z,18.23
2023-08-02T04:37:24.887Z,18.20
2023-08-02T04:38:27.972Z,18.20
2023-08-02T04:39:30.229Z,18.15
2023-08-02T04:40:32.816Z,18.09
2023-08-02T04:41:36.198Z,18.20
2023-08-02T04:42:38.628Z,18.24
2023-08-02T04:43:40.998Z,18.24
2023-08-02T04:44:43.257Z,18.28
2023-08-02T04:45:45.721Z,18.24
2023-08-02T04:46:48.174Z,18.24
2023-08-02T04:47:50.499Z,18.32
2023-08-02T04:48:52.771Z,18.45
2023-08-02T04:49:58.480Z,18.33
2023-08-02T04:51:06.962Z,18.37
2023-08-02T04:52:09.428Z,18.39
2023-08-02T04:53:11.742Z,18.33
2023-08-02T04:54:13.958Z,18.35
2023-08-02T04:55:16.503Z,18.30
2023-08-02T04:56:18.904Z,18.28
2023-08-02T04:57:21.440Z,18.40
2023-08-02T04:58:25.058Z,18.43
2023-08-02T04:59:27.263Z,18.45
2023-08-02T05:00:29.668Z,18.46
2023-08-02T05:01:32.397Z,18.39
2023-08-02T05:02:38.032Z,18.41
2023-08-02T05:03:40.290Z,18.41
2023-08-02T05:04:42.512Z,18.46
2023-08-02T05:05:44.739Z,18.45
2023-08-02T05:06:47.118Z,18.49
2023-08-02T05:07:49.555Z,18.54
2023-08-02T05:08:51.778Z,18.56
2023-08-02T05:09:54.025Z,18.57
2023-08-02T05:10:56.237Z,18.64
2023-08-02T05:11:58.638Z,18.67
2023-08-02T05:13:01.128Z,18.69
2023-08-02T05:14:03.353Z,18.63
2023-08-02T05:15:06.544Z,18.66
2023-08-02T05:16:15.552Z,18.75
2023-08-02T05:17:17.971Z,18.73
2023-08-02T05:18:20.452Z,18.68
2023-08-02T05:19:22.828Z,18.77
2023-08-02T05:20:25.179Z,18.82
2023-08-02T05:21:27.452Z,18.80
2023-08-02T05:22:32.432Z,18.83
2023-08-02T05:23:34.701Z,18.77
2023-08-02T05:24:37.160Z,18.75
2023-08-02T05:25:39.623Z,18.75
2023-08-02T05:26:41.913Z,18.72
2023-08-02T05:27:44.515Z,18.78
2023-08-02T05:28:46.746Z,18.85
2023-08-02T05:29:49.165Z,18.80
2023-08-02T05:30:51.377Z,18.89
2023-08-02T05:31:53.639Z,18.96
2023-08-02T05:32:56.943Z,18.88
2023-08-02T05:33:59.301Z,18.92
2023-08-02T05:35:01.774Z,18.95
2023-08-02T05:36:04.211Z,18.89
2023-08-02T05:37:06.714Z,18.85
2023-08-02T05:38:09.204Z,18.80
2023-08-02T05:39:11.441Z,18.89
2023-08-02T05:40:16.413Z,18.92
2023-08-02T05:41:18.741Z,18.90
2023-08-02T05:42:21.325Z,18.90
2023-08-02T05:43:23.676Z,19.05
2023-08-02T05:44:25.907Z,19.07
2023-08-02T05:45:28.438Z,19.13
2023-08-02T05:46:31.247Z,19.08
2023-08-02T05:47:35.160Z,19.12
2023-08-02T05:48:37.642Z,19.15
2023-08-02T05:49:39.894Z,19.22
2023-08-02T05:50:42.517Z,19.25
2023-08-02T05:51:45.173Z,19.25
2023-08-02T05:52:48.950Z,19.15
2023-08-02T05:53:51.354Z,19.17
2023-08-02T05:54:53.619Z,19.14
2023-08-02T05:55:57.108Z,19.08
2023-08-02T05:56:59.390Z,19.06
2023-08-02T05:58:01.798Z,19.20
2023-08-02T05:59:04.207Z,19.68
2023-08-02T06:00:08.290Z,20.26
2023-08-02T06:01:10.573Z,20.56
2023-08-02T06:02:12.788Z,20.97
2023-08-02T06:03:15.676Z,21.16
2023-08-02T06:04:18.316Z,21.17
2023-08-02T06:05:20.556Z,21.45
2023-08-02T06:06:23.065Z,21.52
2023-08-02T06:07:25.480Z,21.64
2023-08-02T06:08:28.080Z,21.66
2023-08-02T06:09:30.914Z,21.74
2023-08-02T06:10:33.165Z,21.68
2023-08-02T06:11:35.616Z,21.65
2023-08-02T06:12:37.816Z,21.63
2023-08-02T06:13:40.976Z,21.74
2023-08-02T06:14:43.198Z,21.76
2023-08-02T06:15:45.468Z,21.84
2023-08-02T06:16:48.040Z,21.90
2023-08-02T06:17:50.281Z,22.01
2023-08-02T06:18:52.899Z,22.13
2023-08-02T06:19:55.226Z,22.21
2023-08-02T06:20:57.467Z,22.17
2023-08-02T06:21:59.975Z,22.15
2023-08-02T06:23:02.210Z,22.30
2023-08-02T06:24:05.022Z,22.33
2023-08-02T06:25:08.213Z,22.45
2023-08-02T06:26:10.804Z,22.89
2023-08-02T06:27:13.235Z,23.36
2023-08-02T06:28:15.468Z,23.73
2023-08-02T06:29:18.101Z,24.06
2023-08-02T06:30:20.520Z,24.27
2023-08-02T06:31:23.273Z,24.42
2023-08-02T06:32:25.701Z,24.71
2023-08-02T06:33:27.913Z,24.56
2023-08-02T06:34:30.501Z,24.75
2023-08-02T06:35:32.748Z,24.59
2023-08-02T06:36:35.627Z,24.82
2023-08-02T06:37:38.025Z,24.75
2023-08-02T06:38:40.618Z,24.90
2023-08-02T06:39:43.305Z,25.00
2023-08-02T06:40:45.596Z,24.83
2023-08-02T06:41:48.086Z,24.77
2023-08-02T06:42:50.620Z,24.66
2023-08-02T06:43:52.908Z,24.56
2023-08-02T06:44:55.757Z,24.54
2023-08-02T06:45:58.339Z,24.72
2023-08-02T06:47:00.829Z,25.06
2023-08-02T06:48:06.624Z,25.15
2023-08-02T06:49:09.006Z,25.24
2023-08-02T06:50:12.514Z,25.58
2023-08-02T06:51:14.782Z,25.96
2023-08-02T06:52:18.132Z,25.89
2023-08-02T06:53:20.730Z,25.82
2023-08-02T06:54:23.122Z,26.17
2023-08-02T06:55:27.062Z,26.31
2023-08-02T06:56:29.388Z,26.00
2023-08-02T06:57:32.559Z,25.86
2023-08-02T06:58:35.129Z,25.56
2023-08-02T06:59:37.592Z,25.43
2023-08-02T07:00:41.708Z,25.75
2023-08-02T07:01:44.120Z,25.63
2023-08-02T07:02:46.933Z,25.37
2023-08-02T07:03:50.669Z,25.26
2023-08-02T07:04:53.168Z,25.16
2023-08-02T07:05:55.440Z,25.38
2023-08-02T07:06:57.626Z,25.28
2023-08-02T07:08:01.329Z,25.00
2023-08-02T07:09:03.692Z,24.78
2023-08-02T07:10:06.426Z,24.59
2023-08-02T07:11:12.084Z,24.49
2023-08-02T07:12:16.578Z,24.33
2023-08-02T07:13:19.014Z,24.14
2023-08-02T07:14:21.405Z,24.00
2023-08-02T07:15:24.108Z,24.11
2023-08-02T07:16:26.446Z,24.04
2023-08-02T07:17:28.725Z,23.92
2023-08-02T07:18:31.513Z,24.14
2023-08-02T07:19:34.784Z,24.65
2023-08-02T07:20:37.386Z,25.24
2023-08-02T07:21:41.210Z,25.66
2023-08-02T07:22:45.529Z,26.11
2023-08-02T07:23:47.967Z,26.52
2023-08-02T07:24:50.227Z,26.39
2023-08-02T07:25:55.050Z,26.28
2023-08-02T07:26:57.598Z,26.11
2023-08-02T07:27:59.819Z,25.92
2023-08-02T07:29:02.250Z,25.90
2023-08-02T07:30:05.506Z,26.13
2023-08-02T07:31:14.340Z,26.16
2023-08-02T07:32:16.811Z,26.14
2023-08-02T07:33:19.049Z,25.80
2023-08-02T07:34:21.315Z,25.62
2023-08-02T07:35:23.530Z,25.44
2023-08-02T07:36:26.763Z,25.53
2023-08-02T07:37:29.100Z,25.56
2023-08-02T07:38:31.752Z,25.48
2023-08-02T07:39:34.616Z,25.33
2023-08-02T07:40:36.822Z,25.20
2023-08-02T07:41:39.632Z,24.98
2023-08-02T07:42:42.019Z,25.26
2023-08-02T07:43:44.505Z,25.11
2023-08-02T07:45:06.764Z,25.06
2023-08-02T07:46:22.800Z,25.38
2023-08-02T07:47:25.187Z,25.75
2023-08-02T07:48:27.509Z,25.76
2023-08-02T07:49:30.128Z,25.83
2023-08-02T07:50:32.839Z,26.15
2023-08-02T07:51:35.499Z,26.17
2023-08-02T07:52:37.769Z,26.03
2023-08-02T07:53:40.028Z,26.08
2023-08-02T07:54:54.762Z,26.21
2023-08-02T07:56:05.545Z,26.54
2023-08-02T07:57:08.221Z,26.82
2023-08-02T07:58:10.528Z,27.13
2023-08-02T07:59:13.963Z,27.10
2023-08-02T08:00:16.553Z,27.12
2023-08-02T08:01:18.851Z,27.03
2023-08-02T08:02:21.644Z,26.54
2023-08-02T08:03:24.044Z,26.57
2023-08-02T08:04:26.406Z,26.15
2023-08-02T08:05:33.268Z,25.88
2023-08-02T08:06:35.980Z,25.97
2023-08-02T08:07:38.287Z,25.96
2023-08-02T08:08:41.846Z,26.17
2023-08-02T08:09:44.110Z,26.56
2023-08-02T08:10:51.607Z,26.88
2023-08-02T08:11:54.027Z,27.19
2023-08-02T08:12:56.375Z,27.37
2023-08-02T08:13:58.624Z,27.77
2023-08-02T08:15:00.822Z,28.02
2023-08-02T08:16:03.901Z,28.15
2023-08-02T08:17:06.735Z,28.30
2023-08-02T08:18:09.116Z,27.37
2023-08-02T08:19:11.378Z,26.27
2023-08-02T08:20:13.769Z,25.85
2023-08-02T08:21:16.256Z,26.13
2023-08-02T08:22:19.765Z,26.24
2023-08-02T08:23:22.025Z,26.69
2023-08-02T08:24:24.378Z,27.22
2023-08-02T08:25:26.920Z,27.32
2023-08-02T08:26:29.149Z,27.44
2023-08-02T08:27:31.637Z,27.52
2023-08-02T08:28:33.899Z,27.32
2023-08-02T08:29:36.120Z,26.98
2023-08-02T08:30:38.356Z,26.83
2023-08-02T08:31:43.713Z,26.56
2023-08-02T08:32:46.771Z,26.41
2023-08-02T08:33:49.112Z,26.59
2023-08-02T08:34:51.309Z,26.66
2023-08-02T08:35:53.746Z,26.56
2023-08-02T08:36:56.181Z,26.26
2023-08-02T08:37:58.381Z,25.85
2023-08-02T08:39:00.911Z,25.80
2023-08-02T08:41:13.794Z,26.23
2023-08-02T08:42:16.282Z,26.12
2023-08-02T08:43:19.600Z,26.06
2023-08-02T08:44:21.890Z,25.91
2023-08-02T08:45:26.754Z,25.91
2023-08-02T08:46:32.933Z,25.77
2023-08-02T08:47:36.758Z,25.81
2023-08-02T08:48:40.009Z,25.65
2023-08-02T08:49:42.422Z,25.49
2023-08-02T08:50:47.657Z,25.18
2023-08-02T08:51:53.849Z,25.06
2023-08-02T08:52:59.487Z,25.07
2023-08-02T08:54:15.792Z,25.55
2023-08-02T08:55:20.088Z,26.07
2023-08-02T08:56:27.065Z,26.53
2023-08-02T08:57:32.567Z,26.65
2023-08-02T08:58:37.934Z,26.69
2023-08-02T08:59:40.483Z,26.60
2023-08-02T09:00:44.310Z,26.39
2023-08-02T09:01:47.330Z,26.39
2023-08-02T09:02:51.127Z,26.33
2023-08-02T09:03:53.420Z,26.21
2023-08-02T09:04:57.065Z,26.02
2023-08-02T09:06:04.493Z,25.96
2023-08-02T09:07:06.824Z,25.88
2023-08-02T09:08:10.025Z,26.16
2023-08-02T09:09:15.684Z,26.32
2023-08-02T09:10:19.457Z,26.73
2023-08-02T09:11:21.881Z,26.73
2023-08-02T09:12:28.668Z,26.58
2023-08-02T09:13:30.895Z,26.28
2023-08-02T09:14:33.138Z,26.25
2023-08-02T09:15:35.573Z,26.38
2023-08-02T09:16:40.852Z,26.36
2023-08-02T09:17:47.859Z,26.68
2023-08-02T09:18:50.559Z,26.99
2023-08-02T09:20:07.847Z,26.88
2023-08-02T09:21:14.387Z,26.73
2023-08-02T09:22:17.678Z,26.66
2023-08-02T09:23:20.078Z,26.38
2023-08-02T09:24:34.150Z,26.30
2023-08-02T09:25:36.420Z,26.14
2023-08-02T09:26:38.839Z,26.12
2023-08-02T09:27:41.101Z,26.43
2023-08-02T09:29:04.677Z,26.76
2023-08-02T09:30:07.497Z,27.02
2023-08-02T09:31:17.671Z,27.28
2023-08-02T09:32:22.267Z,27.69
2023-08-02T09:33:24.972Z,27.66
2023-08-02T09:34:43.071Z,27.54
2023-08-02T09:35:52.268Z,27.29
2023-08-02T09:36:54.707Z,27.14
2023-08-02T09:37:57.089Z,26.87
2023-08-02T09:39:17.094Z,26.80
2023-08-02T09:40:34.149Z,26.91
2023-08-02T09:42:41.851Z,26.84
2023-08-02T09:43:45.497Z,26.61
2023-08-02T09:44:58.761Z,26.37
2023-08-02T09:46:01.066Z,26.31
2023-08-02T09:47:11.064Z,26.19
2023-08-02T09:48:13.466Z,26.37
2023-08-02T09:49:20.421Z,26.42
2023-08-02T09:50:23.206Z,26.55
2023-08-02T09:51:42.592Z,26.59
2023-08-02T09:52:45.660Z,26.57
2023-08-02T09:53:57.754Z,26.66
2023-08-02T09:55:00.556Z,26.67
2023-08-02T09:56:03.482Z,26.60
2023-08-02T09:57:06.599Z,26.60
2023-08-02T09:58:09.273Z,26.56
2023-08-02T09:59:11.711Z,26.38
2023-08-02T10:00:14.969Z,26.48
2023-08-02T10:01:18.898Z,26.53
2023-08-02T10:02:25.479Z,26.60
2023-08-02T10:03:29.617Z,26.61
2023-08-02T10:04:32.618Z,26.47
2023-08-02T10:05:42.512Z,26.69
2023-08-02T10:06:48.942Z,26.67
2023-08-02T10:07:55.562Z,26.76
2023-08-02T10:09:06.640Z,26.86
2023-08-02T10:10:24.619Z,27.04
2023-08-02T10:11:28.645Z,27.02
2023-08-02T10:12:31.716Z,26.84
2023-08-02T10:13:38.873Z,26.80
2023-08-02T10:14:41.960Z,26.64
2023-08-02T10:15:44.710Z,26.58
2023-08-02T10:16:47.423Z,26.44
2023-08-02T10:17:50.371Z,26.38
2023-08-02T10:18:53.830Z,26.46
2023-08-02T10:19:57.050Z,26.77
2023-08-02T10:21:01.957Z,26.95
2023-08-02T10:22:05.571Z,26.88
2023-08-02T10:23:09.852Z,26.92
2023-08-02T10:24:14.399Z,26.86
2023-08-02T10:25:18.735Z,26.80
2023-08-02T10:26:22.127Z,26.84
2023-08-02T10:27:26.165Z,26.85
2023-08-02T10:28:29.446Z,26.83
2023-08-02T10:29:34.786Z,26.29
2023-08-02T10:30:37.773Z,26.17
2023-08-02T10:31:41.481Z,26.16
2023-08-02T10:32:43.850Z,26.01
2023-08-02T10:33:46.202Z,26.03
2023-08-02T10:34:53.282Z,26.03
2023-08-02T10:36:07.978Z,26.05
2023-08-02T10:37:10.284Z,26.07
2023-08-02T10:38:16.364Z,26.00
2023-08-02T10:39:18.620Z,26.06
2023-08-02T10:40:22.787Z,26.14
2023-08-02T10:41:28.255Z,25.97
2023-08-02T10:42:31.166Z,25.94
2023-08-02T10:43:33.777Z,25.96
2023-08-02T10:44:36.005Z,25.98
2023-08-02T10:45:38.301Z,26.08
2023-08-02T10:46:41.374Z,26.03
2023-08-02T10:47:44.277Z,25.95
2023-08-02T10:48:46.875Z,25.96
2023-08-02T10:49:49.178Z,25.61
2023-08-02T10:50:51.492Z,25.40
2023-08-02T10:51:57.525Z,25.35
2023-08-02T10:53:08.825Z,25.48
2023-08-02T10:54:24.370Z,25.59
2023-08-02T10:55:26.855Z,25.73
2023-08-02T10:56:29.303Z,25.82
2023-08-02T10:57:31.714Z,26.00
2023-08-02T10:58:51.876Z,26.13
2023-08-02T10:59:54.504Z,26.07
2023-08-02T11:01:12.084Z,25.89
2023-08-02T11:02:15.081Z,25.82
2023-08-02T11:03:29.736Z,25.80
2023-08-02T11:04:32.164Z,25.86
2023-08-02T11:05:41.417Z,25.95
2023-08-02T11:06:44.113Z,25.72
2023-08-02T11:08:01.998Z,26.00
2023-08-02T11:09:05.072Z,26.26
2023-08-02T11:10:07.943Z,26.34
2023-08-02T11:11:10.163Z,26.16
2023-08-02T11:12:33.487Z,26.30
2023-08-02T11:13:41.173Z,26.37
2023-08-02T11:14:46.201Z,26.62
2023-08-02T11:16:15.539Z,26.69
2023-08-02T11:18:35.511Z,26.74
2023-08-02T11:21:17.098Z,26.24
2023-08-02T11:22:20.290Z,26.27
2023-08-02T11:23:29.455Z,26.45
2023-08-02T11:24:50.133Z,26.33
2023-08-02T11:26:15.809Z,26.16
2023-08-02T11:27:22.086Z,25.91
2023-08-02T11:28:25.740Z,25.95
2023-08-02T11:29:28.157Z,25.99
2023-08-02T11:30:30.886Z,26.07
2023-08-02T11:31:33.538Z,26.15
2023-08-02T11:32:44.336Z,26.16
2023-08-02T11:33:46.924Z,26.15
2023-08-02T11:34:51.971Z,26.16
2023-08-02T11:35:58.852Z,25.97
2023-08-02T11:37:09.313Z,25.91
2023-08-02T11:38:14.664Z,25.68
2023-08-02T11:39:17.985Z,25.63
2023-08-02T11:40:26.686Z,25.61
2023-08-02T11:41:29.291Z,25.72
2023-08-02T11:42:34.200Z,25.68
2023-08-02T11:43:37.869Z,25.67
2023-08-02T11:44:49.730Z,25.23
2023-08-02T11:46:00.795Z,25.29
2023-08-02T11:47:03.355Z,25.37
2023-08-02T11:48:10.834Z,25.15
2023-08-02T11:49:13.952Z,25.26
2023-08-02T11:50:24.713Z,25.47
2023-08-02T11:51:26.829Z,25.42
2023-08-02T11:52:31.315Z,25.37
2023-08-02T11:53:33.961Z,25.48
2023-08-02T11:54:36.290Z,25.61
2023-08-02T11:55:40.065Z,25.78
2023-08-02T11:56:43.517Z,25.62
2023-08-02T11:57:47.545Z,25.65
2023-08-02T11:58:50.924Z,25.75
2023-08-02T11:59:57.764Z,25.69
2023-08-02T12:01:00.589Z,25.71
2023-08-02T12:02:02.844Z,25.84
2023-08-02T12:03:10.207Z,25.86
2023-08-02T12:04:12.652Z,25.90
2023-08-02T12:05:22.444Z,25.90
2023-08-02T12:06:29.646Z,26.09
2023-08-02T12:07:33.243Z,25.98
2023-08-02T12:08:35.474Z,25.89
2023-08-02T12:09:43.611Z,25.73
2023-08-02T12:10:48.633Z,25.85
2023-08-02T12:11:54.088Z,25.82
2023-08-02T12:12:56.504Z,25.72
2023-08-02T12:14:02.700Z,25.68
2023-08-02T12:15:12.478Z,25.70
2023-08-02T12:16:17.332Z,25.63
2023-08-02T12:17:21.539Z,25.66
2023-08-02T12:18:23.919Z,25.62
2023-08-02T12:19:40.045Z,25.68
2023-08-02T12:20:42.768Z,25.83
2023-08-02T12:21:46.881Z,25.93
2023-08-02T12:22:50.645Z,26.03
2023-08-02T12:23:53.946Z,25.93
2023-08-02T12:25:07.207Z,25.67
2023-08-02T12:26:09.943Z,25.46
2023-08-02T12:27:30.809Z,25.38
2023-08-02T12:28:48.874Z,25.40
2023-08-02T12:30:08.507Z,25.25
2023-08-02T12:31:11.977Z,24.79
2023-08-02T12:32:28.454Z,24.84
2023-08-02T12:33:32.796Z,24.96
2023-08-02T12:34:35.151Z,24.89
2023-08-02T12:35:42.896Z,24.99
2023-08-02T12:36:48.421Z,25.06
2023-08-02T12:37:52.239Z,24.99
2023-08-02T12:38:56.341Z,24.96
2023-08-02T12:39:59.261Z,24.90
2023-08-02T12:41:04.206Z,25.01
2023-08-02T12:42:08.184Z,24.90
2023-08-02T12:43:10.439Z,24.97
2023-08-02T12:44:12.883Z,24.92
2023-08-02T12:45:18.022Z,24.89
2023-08-02T12:46:21.404Z,24.84
2023-08-02T12:47:23.802Z,24.82
2023-08-02T12:48:26.085Z,24.76
2023-08-02T12:49:28.549Z,24.72
2023-08-02T12:50:30.848Z,24.79
2023-08-02T12:51:33.545Z,24.63
2023-08-02T12:52:35.806Z,24.78
2023-08-02T12:53:38.068Z,24.76
2023-08-02T12:54:40.503Z,24.73
2023-08-02T12:55:43.409Z,24.52
2023-08-02T12:56:45.952Z,24.58
2023-08-02T12:57:48.233Z,24.62
2023-08-02T12:58:50.481Z,24.79
2023-08-02T12:59:52.946Z,24.89
2023-08-02T13:00:55.219Z,25.05
2023-08-02T13:01:59.446Z,25.17
2023-08-02T13:03:01.938Z,24.99
2023-08-02T13:04:04.423Z,24.91
2023-08-02T13:05:07.239Z,24.98
2023-08-02T13:06:09.542Z,24.84
2023-08-02T13:07:12.222Z,24.84
2023-08-02T13:08:14.648Z,24.72
2023-08-02T13:09:16.854Z,24.58
2023-08-02T13:10:19.284Z,24.53
2023-08-02T13:11:21.585Z,24.50
2023-08-02T13:12:28.153Z,24.63
2023-08-02T13:13:41.351Z,24.60
2023-08-02T13:14:43.578Z,24.63
2023-08-02T13:15:46.668Z,24.82
2023-08-02T13:16:49.154Z,24.80
2023-08-02T13:17:51.558Z,24.59
2023-08-02T13:18:53.879Z,24.59
2023-08-02T13:19:56.162Z,24.70
2023-08-02T13:20:58.826Z,24.75
2023-08-02T13:22:01.243Z,24.79
2023-08-02T13:23:03.603Z,24.89
2023-08-02T13:24:07.865Z,24.92
2023-08-02T13:25:11.765Z,24.93
2023-08-02T13:26:14.755Z,24.90
2023-08-02T13:27:17.713Z,24.94
2023-08-02T13:28:22.152Z,24.91
2023-08-02T13:29:24.397Z,24.90
2023-08-02T13:30:27.540Z,25.05
2023-08-02T13:31:30.842Z,25.26
2023-08-02T13:32:35.851Z,25.20
2023-08-02T13:33:42.599Z,25.16
2023-08-02T13:34:44.824Z,25.10
2023-08-02T13:35:47.284Z,25.04
2023-08-02T13:36:50.907Z,24.89
2023-08-02T13:37:53.202Z,24.88
2023-08-02T13:38:55.426Z,24.76
2023-08-02T13:39:57.682Z,24.91
2023-08-02T13:41:00.970Z,24.97
2023-08-02T13:42:03.647Z,25.09
2023-08-02T13:43:05.870Z,25.16
2023-08-02T13:44:08.137Z,25.10
2023-08-02T13:45:10.901Z,25.05
2023-08-02T13:46:13.357Z,25.10
2023-08-02T13:47:15.835Z,24.99
2023-08-02T13:48:18.090Z,24.84